RLXB4W WSSS-WIII
Flight info
| Callsign | RLXB4W |
|---|---|
| Flight time | 1h 23m |
| Altitude | 37000 |
| Route | ANITO8B ANITO B470 BUNIK |
| Aircraft | B738/M-SDE2E3FGHIRWXY/LB1 |
Departure
| Time | 2026-05-07 12:11 |
|---|---|
| Airport | Singapore Changi Airport (WSSS) |
Arrival
| Time | 2026-05-07 13:35 |
|---|---|
| Airport | Soekarno-Hatta International Airport (WIII) |
| Time | Latitude | Longitude | Altitude | Speed | Heading |
|---|---|---|---|---|---|
| 2026-05-07 11:32 | 1.36664 | 103.99034 | 24 ft | 0 kts | 279° |
| 2026-05-07 11:56 | 1.36662 | 103.99046 | 26 ft | 2 kts | 281° |
| 2026-05-07 11:56 | 1.36658 | 103.99062 | 24 ft | 2 kts | 282° |
| 2026-05-07 11:57 | 1.36654 | 103.99078 | 28 ft | 2 kts | 285° |
| 2026-05-07 11:57 | 1.36650 | 103.99093 | 29 ft | 2 kts | 290° |
| 2026-05-07 11:57 | 1.36643 | 103.99109 | 27 ft | 2 kts | 300° |
| 2026-05-07 11:57 | 1.36633 | 103.99121 | 26 ft | 2 kts | 328° |
| 2026-05-07 11:58 | 1.36622 | 103.99126 | 26 ft | 1 kts | 350° |
| 2026-05-07 11:58 | 1.36621 | 103.99126 | 26 ft | 0 kts | 350° |
| 2026-05-07 12:06 | 1.36632 | 103.99125 | 26 ft | 4 kts | 355° |
| 2026-05-07 12:06 | 1.36680 | 103.99146 | 26 ft | 10 kts | 73° |
| 2026-05-07 12:06 | 1.36662 | 103.99210 | 27 ft | 10 kts | 111° |
| 2026-05-07 12:06 | 1.36637 | 103.99271 | 26 ft | 9 kts | 113° |
| 2026-05-07 12:07 | 1.36612 | 103.99329 | 24 ft | 9 kts | 113° |
| 2026-05-07 12:07 | 1.36587 | 103.99386 | 26 ft | 9 kts | 113° |
| 2026-05-07 12:07 | 1.36563 | 103.99442 | 26 ft | 9 kts | 113° |
| 2026-05-07 12:07 | 1.36539 | 103.99496 | 24 ft | 8 kts | 114° |
| 2026-05-07 12:08 | 1.36508 | 103.99568 | 26 ft | 13 kts | 113° |
| 2026-05-07 12:08 | 1.36473 | 103.99652 | 24 ft | 13 kts | 111° |
| 2026-05-07 12:08 | 1.36439 | 103.99734 | 24 ft | 13 kts | 113° |
| 2026-05-07 12:08 | 1.36405 | 103.99812 | 28 ft | 12 kts | 113° |
| 2026-05-07 12:09 | 1.36393 | 103.99837 | 26 ft | 0 kts | 120° |
| 2026-05-07 12:10 | 1.36373 | 103.99860 | 26 ft | 12 kts | 143° |
| 2026-05-07 12:10 | 1.36260 | 103.99885 | 28 ft | 17 kts | 173° |
| 2026-05-07 12:10 | 1.36147 | 103.99875 | 30 ft | 16 kts | 204° |
| 2026-05-07 12:11 | 1.35886 | 103.99764 | 28 ft | 75 kts | 203° |
| 2026-05-07 12:11 | 1.35198 | 103.99474 | 30 ft | 137 kts | 203° |
| 2026-05-07 12:11 | 1.34205 | 103.99065 | 280 ft | 164 kts | 199° |
| 2026-05-07 12:11 | 1.33115 | 103.98653 | 905 ft | 172 kts | 201° |
| 2026-05-07 12:12 | 1.31959 | 103.98163 | 1354 ft | 194 kts | 203° |
| 2026-05-07 12:12 | 1.30641 | 103.97578 | 1600 ft | 220 kts | 203° |
| 2026-05-07 12:12 | 1.29172 | 103.96926 | 1786 ft | 242 kts | 203° |
| 2026-05-07 12:12 | 1.27607 | 103.96232 | 2357 ft | 244 kts | 203° |
| 2026-05-07 12:13 | 1.26046 | 103.95547 | 2766 ft | 244 kts | 203° |
| 2026-05-07 12:13 | 1.24491 | 103.94869 | 3018 ft | 245 kts | 203° |
| 2026-05-07 12:13 | 1.22920 | 103.94185 | 3019 ft | 246 kts | 203° |
| 2026-05-07 12:13 | 1.21345 | 103.93552 | 3024 ft | 251 kts | 193° |
| 2026-05-07 12:14 | 1.19577 | 103.93672 | 3013 ft | 265 kts | 155° |
| 2026-05-07 12:14 | 1.18189 | 103.94876 | 3516 ft | 269 kts | 127° |
| 2026-05-07 12:14 | 1.17025 | 103.96338 | 4366 ft | 268 kts | 130° |
| 2026-05-07 12:14 | 1.15792 | 103.97752 | 5134 ft | 272 kts | 132° |
| 2026-05-07 12:15 | 1.14514 | 103.99146 | 5726 ft | 271 kts | 133° |
| 2026-05-07 12:15 | 1.13212 | 104.00515 | 6002 ft | 274 kts | 134° |
| 2026-05-07 12:15 | 1.11859 | 104.01899 | 6000 ft | 280 kts | 134° |
| 2026-05-07 12:15 | 1.10487 | 104.03274 | 6005 ft | 279 kts | 135° |
| 2026-05-07 12:16 | 1.09114 | 104.04634 | 6012 ft | 277 kts | 135° |
| 2026-05-07 12:16 | 1.07745 | 104.05981 | 6052 ft | 278 kts | 135° |
| 2026-05-07 12:16 | 1.06353 | 104.07353 | 6556 ft | 283 kts | 135° |
| 2026-05-07 12:16 | 1.04957 | 104.08721 | 7368 ft | 280 kts | 135° |
| 2026-05-07 12:17 | 1.03572 | 104.10071 | 8061 ft | 283 kts | 135° |
| 2026-05-07 12:17 | 1.02151 | 104.11449 | 8763 ft | 286 kts | 135° |
| 2026-05-07 12:17 | 1.00713 | 104.12838 | 9461 ft | 289 kts | 135° |
| 2026-05-07 12:17 | 0.99259 | 104.14240 | 10121 ft | 292 kts | 135° |
| 2026-05-07 12:18 | 0.97762 | 104.15681 | 10426 ft | 309 kts | 135° |
| 2026-05-07 12:18 | 0.96160 | 104.17222 | 10577 ft | 330 kts | 135° |
| 2026-05-07 12:18 | 0.94461 | 104.18855 | 10780 ft | 346 kts | 135° |
| 2026-05-07 12:18 | 0.93300 | 104.19970 | 11068 ft | 351 kts | 135° |
| 2026-05-07 12:19 | 0.91529 | 104.21669 | 11642 ft | 355 kts | 135° |
| 2026-05-07 12:19 | 0.89741 | 104.23382 | 12223 ft | 357 kts | 135° |
| 2026-05-07 12:19 | 0.87939 | 104.25109 | 12822 ft | 361 kts | 135° |
| 2026-05-07 12:19 | 0.86123 | 104.26850 | 13411 ft | 364 kts | 135° |
| 2026-05-07 12:20 | 0.84283 | 104.28614 | 13964 ft | 367 kts | 135° |
| 2026-05-07 12:20 | 0.82431 | 104.30389 | 14508 ft | 370 kts | 134° |
| 2026-05-07 12:20 | 0.80556 | 104.32187 | 15067 ft | 373 kts | 134° |
| 2026-05-07 12:20 | 0.78704 | 104.33963 | 15609 ft | 376 kts | 134° |
| 2026-05-07 12:21 | 0.76806 | 104.35783 | 16144 ft | 379 kts | 134° |
| 2026-05-07 12:21 | 0.74898 | 104.37611 | 16675 ft | 382 kts | 134° |
| 2026-05-07 12:21 | 0.72973 | 104.39457 | 17204 ft | 385 kts | 134° |
| 2026-05-07 12:21 | 0.71033 | 104.41317 | 17726 ft | 388 kts | 134° |
| 2026-05-07 12:22 | 0.69077 | 104.43193 | 18207 ft | 391 kts | 134° |
| 2026-05-07 12:22 | 0.67106 | 104.45082 | 18627 ft | 394 kts | 134° |
| 2026-05-07 12:22 | 0.65121 | 104.46985 | 19050 ft | 397 kts | 134° |
| 2026-05-07 12:22 | 0.63119 | 104.48904 | 19466 ft | 400 kts | 134° |
| 2026-05-07 12:23 | 0.61105 | 104.50835 | 19877 ft | 403 kts | 134° |
| 2026-05-07 12:23 | 0.59079 | 104.52777 | 20278 ft | 406 kts | 134° |
| 2026-05-07 12:23 | 0.57036 | 104.54736 | 20675 ft | 408 kts | 134° |
| 2026-05-07 12:23 | 0.54979 | 104.56708 | 21074 ft | 411 kts | 134° |
| 2026-05-07 12:24 | 0.52910 | 104.58692 | 21463 ft | 414 kts | 134° |
| 2026-05-07 12:24 | 0.50823 | 104.60692 | 21850 ft | 416 kts | 134° |
| 2026-05-07 12:24 | 0.48702 | 104.62630 | 22208 ft | 420 kts | 140° |
| 2026-05-07 12:24 | 0.46214 | 104.64261 | 22567 ft | 425 kts | 150° |
| 2026-05-07 12:25 | 0.43495 | 104.65466 | 22928 ft | 430 kts | 160° |
| 2026-05-07 12:25 | 0.40658 | 104.66328 | 23281 ft | 433 kts | 162° |
| 2026-05-07 12:25 | 0.37746 | 104.67152 | 23579 ft | 436 kts | 162° |
| 2026-05-07 12:25 | 0.34816 | 104.67975 | 23874 ft | 438 kts | 162° |
| 2026-05-07 12:26 | 0.31887 | 104.68812 | 24184 ft | 439 kts | 162° |
| 2026-05-07 12:26 | 0.28951 | 104.69666 | 24493 ft | 440 kts | 162° |
| 2026-05-07 12:26 | 0.26004 | 104.70535 | 24783 ft | 442 kts | 162° |
| 2026-05-07 12:26 | 0.23051 | 104.71410 | 25053 ft | 444 kts | 162° |
| 2026-05-07 12:27 | 0.20081 | 104.72292 | 25341 ft | 445 kts | 162° |
| 2026-05-07 12:27 | 0.17104 | 104.73175 | 25620 ft | 447 kts | 162° |
| 2026-05-07 12:27 | 0.14111 | 104.74061 | 25898 ft | 449 kts | 162° |
| 2026-05-07 12:27 | 0.11109 | 104.74953 | 26171 ft | 450 kts | 162° |
| 2026-05-07 12:28 | 0.08097 | 104.75851 | 26449 ft | 452 kts | 162° |
| 2026-05-07 12:28 | 0.05109 | 104.76742 | 26704 ft | 454 kts | 162° |
| 2026-05-07 12:28 | 0.02081 | 104.77645 | 26961 ft | 455 kts | 162° |
| 2026-05-07 12:28 | -0.00962 | 104.78552 | 27221 ft | 457 kts | 162° |
| 2026-05-07 12:29 | -0.04015 | 104.79462 | 27469 ft | 459 kts | 162° |
| 2026-05-07 12:29 | -0.07077 | 104.80375 | 27706 ft | 460 kts | 162° |
| 2026-05-07 12:29 | -0.10157 | 104.81292 | 27940 ft | 462 kts | 162° |
| 2026-05-07 12:29 | -0.13244 | 104.82212 | 28178 ft | 463 kts | 162° |
| 2026-05-07 12:30 | -0.16337 | 104.83134 | 28413 ft | 465 kts | 162° |
| 2026-05-07 12:30 | -0.19447 | 104.84061 | 28637 ft | 466 kts | 162° |
| 2026-05-07 12:30 | -0.22559 | 104.84989 | 28858 ft | 468 kts | 162° |
| 2026-05-07 12:30 | -0.25686 | 104.85923 | 29074 ft | 469 kts | 161° |
| 2026-05-07 12:31 | -0.28732 | 104.87093 | 29272 ft | 470 kts | 153° |
| 2026-05-07 12:31 | -0.31517 | 104.88706 | 29469 ft | 470 kts | 145° |
| 2026-05-07 12:31 | -0.34220 | 104.90547 | 29696 ft | 470 kts | 144° |
| 2026-05-07 12:31 | -0.36917 | 104.92415 | 29826 ft | 473 kts | 144° |
| 2026-05-07 12:32 | -0.39635 | 104.94298 | 29815 ft | 476 kts | 144° |
| 2026-05-07 12:32 | -0.45064 | 104.98024 | 29804 ft | 462 kts | 144° |
| 2026-05-07 12:32 | -0.47683 | 104.99803 | 29811 ft | 446 kts | 144° |
| 2026-05-07 12:33 | -0.52743 | 105.03227 | 29830 ft | 441 kts | 144° |
| 2026-05-07 12:33 | -0.57827 | 105.06665 | 29839 ft | 441 kts | 145° |
| 2026-05-07 12:34 | -0.62915 | 105.10106 | 29832 ft | 441 kts | 145° |
| 2026-05-07 12:34 | -0.68002 | 105.13547 | 29828 ft | 441 kts | 145° |
| 2026-05-07 12:35 | -0.73092 | 105.16990 | 29827 ft | 441 kts | 145° |
| 2026-05-07 12:35 | -0.78186 | 105.20435 | 29833 ft | 442 kts | 144° |
| 2026-05-07 12:36 | -0.83254 | 105.23864 | 29830 ft | 442 kts | 144° |
| 2026-05-07 12:36 | -0.88347 | 105.27309 | 29831 ft | 442 kts | 144° |
| 2026-05-07 12:37 | -0.93449 | 105.30761 | 29834 ft | 443 kts | 144° |
| 2026-05-07 12:37 | -0.98548 | 105.34210 | 29830 ft | 443 kts | 144° |
| 2026-05-07 12:38 | -1.03651 | 105.37663 | 29837 ft | 443 kts | 144° |
| 2026-05-07 12:38 | -1.08754 | 105.41115 | 29831 ft | 442 kts | 144° |
| 2026-05-07 12:39 | -1.13815 | 105.44540 | 29839 ft | 442 kts | 144° |
| 2026-05-07 12:39 | -1.18917 | 105.47992 | 29834 ft | 442 kts | 144° |
| 2026-05-07 12:40 | -1.24006 | 105.51436 | 29836 ft | 441 kts | 144° |
| 2026-05-07 12:40 | -1.29064 | 105.54859 | 29838 ft | 441 kts | 144° |
| 2026-05-07 12:41 | -1.34156 | 105.58305 | 29837 ft | 441 kts | 144° |
| 2026-05-07 12:41 | -1.39244 | 105.61748 | 29839 ft | 441 kts | 144° |
| 2026-05-07 12:42 | -1.44330 | 105.65190 | 29830 ft | 441 kts | 144° |
| 2026-05-07 12:42 | -1.49388 | 105.68613 | 29834 ft | 442 kts | 144° |
| 2026-05-07 12:43 | -1.54525 | 105.72092 | 29847 ft | 444 kts | 144° |
| 2026-05-07 12:43 | -1.59612 | 105.75535 | 29845 ft | 445 kts | 144° |
| 2026-05-07 12:44 | -1.64757 | 105.79018 | 29846 ft | 446 kts | 144° |
| 2026-05-07 12:44 | -1.69904 | 105.82502 | 29840 ft | 447 kts | 144° |
| 2026-05-07 12:45 | -1.75053 | 105.85988 | 29843 ft | 447 kts | 144° |
| 2026-05-07 12:45 | -1.80201 | 105.89474 | 29838 ft | 446 kts | 144° |
| 2026-05-07 12:46 | -1.85305 | 105.92930 | 29837 ft | 445 kts | 144° |
| 2026-05-07 12:46 | -1.90431 | 105.96402 | 29838 ft | 444 kts | 144° |
| 2026-05-07 12:47 | -1.95551 | 105.99870 | 29839 ft | 444 kts | 144° |
| 2026-05-07 12:47 | -2.00659 | 106.03330 | 29851 ft | 443 kts | 144° |
| 2026-05-07 12:48 | -2.05764 | 106.06789 | 29843 ft | 443 kts | 144° |
| 2026-05-07 12:48 | -2.10874 | 106.10251 | 29850 ft | 443 kts | 144° |
| 2026-05-07 12:49 | -2.16067 | 106.13497 | 29843 ft | 445 kts | 153° |
| 2026-05-07 12:49 | -2.22023 | 106.15252 | 29858 ft | 448 kts | 168° |
| 2026-05-07 12:50 | -2.28187 | 106.16255 | 29842 ft | 448 kts | 169° |
| 2026-05-07 12:50 | -2.34349 | 106.17246 | 29847 ft | 448 kts | 169° |
| 2026-05-07 12:51 | -2.40494 | 106.18274 | 29852 ft | 447 kts | 168° |
| 2026-05-07 12:51 | -2.46593 | 106.19315 | 29853 ft | 447 kts | 168° |
| 2026-05-07 12:52 | -2.52718 | 106.20367 | 29853 ft | 446 kts | 168° |
| 2026-05-07 12:52 | -2.58842 | 106.21418 | 29853 ft | 446 kts | 169° |
| 2026-05-07 12:53 | -2.64953 | 106.22465 | 29843 ft | 445 kts | 168° |
| 2026-05-07 12:53 | -2.71059 | 106.23512 | 29851 ft | 444 kts | 168° |
| 2026-05-07 12:54 | -2.77153 | 106.24556 | 29852 ft | 444 kts | 169° |
| 2026-05-07 12:54 | -2.83239 | 106.25600 | 29848 ft | 444 kts | 169° |
| 2026-05-07 12:55 | -2.89285 | 106.26636 | 29852 ft | 444 kts | 168° |
| 2026-05-07 12:55 | -2.95381 | 106.27681 | 29854 ft | 444 kts | 168° |
| 2026-05-07 12:56 | -3.01480 | 106.28728 | 29848 ft | 444 kts | 168° |
| 2026-05-07 12:56 | -3.07583 | 106.29774 | 29853 ft | 445 kts | 168° |
| 2026-05-07 12:57 | -3.13652 | 106.30815 | 29854 ft | 445 kts | 168° |
| 2026-05-07 12:57 | -3.19759 | 106.31863 | 29845 ft | 445 kts | 168° |
| 2026-05-07 12:58 | -3.25869 | 106.32911 | 29854 ft | 445 kts | 168° |
| 2026-05-07 12:58 | -3.31990 | 106.33962 | 29847 ft | 445 kts | 168° |
| 2026-05-07 12:59 | -3.38075 | 106.35006 | 29851 ft | 445 kts | 168° |
| 2026-05-07 12:59 | -3.44174 | 106.36053 | 29851 ft | 444 kts | 168° |
| 2026-05-07 13:00 | -3.50262 | 106.37098 | 29854 ft | 443 kts | 168° |
| 2026-05-07 13:00 | -3.56338 | 106.38141 | 29857 ft | 443 kts | 168° |
| 2026-05-07 13:01 | -3.62415 | 106.39185 | 29853 ft | 442 kts | 168° |
| 2026-05-07 13:01 | -3.68471 | 106.40285 | 29856 ft | 442 kts | 167° |
| 2026-05-07 13:02 | -3.74485 | 106.41420 | 29861 ft | 443 kts | 167° |
| 2026-05-07 13:02 | -3.80550 | 106.42562 | 29860 ft | 443 kts | 167° |
| 2026-05-07 13:03 | -3.86619 | 106.43697 | 29856 ft | 444 kts | 167° |
| 2026-05-07 13:03 | -3.92707 | 106.44833 | 29856 ft | 444 kts | 167° |
| 2026-05-07 13:04 | -3.98788 | 106.45967 | 29856 ft | 444 kts | 167° |
| 2026-05-07 13:04 | -4.04873 | 106.47103 | 29853 ft | 445 kts | 167° |
| 2026-05-07 13:05 | -4.10920 | 106.48231 | 29857 ft | 445 kts | 167° |
| 2026-05-07 13:05 | -4.17026 | 106.49372 | 29856 ft | 445 kts | 167° |
| 2026-05-07 13:06 | -4.23126 | 106.50510 | 29861 ft | 445 kts | 167° |
| 2026-05-07 13:06 | -4.29183 | 106.51642 | 29859 ft | 446 kts | 167° |
| 2026-05-07 13:07 | -4.35281 | 106.52780 | 29855 ft | 445 kts | 167° |
| 2026-05-07 13:07 | -4.41383 | 106.53920 | 29866 ft | 445 kts | 168° |
| 2026-05-07 13:08 | -4.46445 | 106.54866 | 29857 ft | 445 kts | 167° |
| 2026-05-07 13:08 | -4.52533 | 106.56003 | 29854 ft | 444 kts | 167° |
| 2026-05-07 13:09 | -4.58599 | 106.57137 | 29858 ft | 443 kts | 167° |
| 2026-05-07 13:09 | -4.64661 | 106.58271 | 29858 ft | 443 kts | 168° |
| 2026-05-07 13:10 | -4.70714 | 106.59402 | 29862 ft | 442 kts | 167° |
| 2026-05-07 13:10 | -4.76767 | 106.60535 | 29868 ft | 442 kts | 167° |
| 2026-05-07 13:11 | -4.82822 | 106.61668 | 29858 ft | 442 kts | 168° |
| 2026-05-07 13:11 | -4.88709 | 106.63218 | 29864 ft | 438 kts | 155° |
| 2026-05-07 13:12 | -4.94316 | 106.65353 | 29627 ft | 425 kts | 167° |
| 2026-05-07 13:12 | -4.97228 | 106.65737 | 29250 ft | 420 kts | 172° |
| 2026-05-07 13:12 | -5.00134 | 106.66018 | 28735 ft | 419 kts | 173° |
| 2026-05-07 13:13 | -5.03034 | 106.66288 | 28216 ft | 418 kts | 173° |
| 2026-05-07 13:13 | -5.05919 | 106.66562 | 27747 ft | 415 kts | 173° |
| 2026-05-07 13:13 | -5.08783 | 106.66842 | 27312 ft | 412 kts | 173° |
| 2026-05-07 13:13 | -5.11627 | 106.67129 | 26903 ft | 409 kts | 173° |
| 2026-05-07 13:14 | -5.14443 | 106.67418 | 26527 ft | 405 kts | 172° |
| 2026-05-07 13:14 | -5.17243 | 106.67710 | 26109 ft | 403 kts | 172° |
| 2026-05-07 13:14 | -5.20023 | 106.68001 | 25679 ft | 401 kts | 172° |
| 2026-05-07 13:14 | -5.22796 | 106.68292 | 25273 ft | 399 kts | 172° |
| 2026-05-07 13:15 | -5.25522 | 106.68578 | 24888 ft | 396 kts | 172° |
| 2026-05-07 13:15 | -5.28258 | 106.68866 | 24510 ft | 394 kts | 172° |
| 2026-05-07 13:15 | -5.30986 | 106.69097 | 24114 ft | 393 kts | 178° |
| 2026-05-07 13:15 | -5.33706 | 106.68790 | 23701 ft | 395 kts | 193° |
| 2026-05-07 13:16 | -5.36289 | 106.67883 | 23371 ft | 392 kts | 205° |
| 2026-05-07 13:16 | -5.38694 | 106.66608 | 22946 ft | 390 kts | 207° |
| 2026-05-07 13:16 | -5.41078 | 106.65303 | 22491 ft | 388 kts | 207° |
| 2026-05-07 13:16 | -5.43438 | 106.64014 | 22126 ft | 385 kts | 207° |
| 2026-05-07 13:17 | -5.45782 | 106.62739 | 21743 ft | 381 kts | 207° |
| 2026-05-07 13:17 | -5.48110 | 106.61481 | 21333 ft | 380 kts | 207° |
| 2026-05-07 13:17 | -5.50413 | 106.60241 | 20990 ft | 370 kts | 207° |
| 2026-05-07 13:17 | -5.52669 | 106.59029 | 20381 ft | 366 kts | 207° |
| 2026-05-07 13:18 | -5.54884 | 106.57842 | 19748 ft | 365 kts | 206° |
| 2026-05-07 13:18 | -5.57118 | 106.56646 | 19174 ft | 362 kts | 206° |
| 2026-05-07 13:18 | -5.59326 | 106.55464 | 18657 ft | 357 kts | 206° |
| 2026-05-07 13:18 | -5.61510 | 106.54294 | 18121 ft | 354 kts | 206° |
| 2026-05-07 13:19 | -5.63677 | 106.53133 | 17485 ft | 350 kts | 205° |
| 2026-05-07 13:19 | -5.65820 | 106.51985 | 16885 ft | 347 kts | 206° |
| 2026-05-07 13:19 | -5.67944 | 106.50847 | 16285 ft | 344 kts | 206° |
| 2026-05-07 13:19 | -5.70050 | 106.49718 | 15689 ft | 342 kts | 206° |
| 2026-05-07 13:20 | -5.72111 | 106.48613 | 15130 ft | 339 kts | 206° |
| 2026-05-07 13:20 | -5.74179 | 106.47504 | 14579 ft | 336 kts | 205° |
| 2026-05-07 13:20 | -5.76236 | 106.46402 | 14030 ft | 333 kts | 206° |
| 2026-05-07 13:20 | -5.78278 | 106.45309 | 13466 ft | 331 kts | 206° |
| 2026-05-07 13:21 | -5.80298 | 106.44226 | 12882 ft | 328 kts | 206° |
| 2026-05-07 13:21 | -5.82299 | 106.43153 | 12330 ft | 325 kts | 206° |
| 2026-05-07 13:21 | -5.84283 | 106.42089 | 11771 ft | 322 kts | 206° |
| 2026-05-07 13:21 | -5.86238 | 106.41041 | 11450 ft | 311 kts | 206° |
| 2026-05-07 13:22 | -5.88110 | 106.40036 | 11186 ft | 300 kts | 206° |
| 2026-05-07 13:22 | -5.89929 | 106.39061 | 10860 ft | 292 kts | 206° |
| 2026-05-07 13:22 | -5.91708 | 106.38106 | 10457 ft | 289 kts | 206° |
| 2026-05-07 13:22 | -5.93454 | 106.37171 | 10009 ft | 288 kts | 206° |
| 2026-05-07 13:23 | -5.95241 | 106.36212 | 9544 ft | 286 kts | 206° |
| 2026-05-07 13:23 | -5.96992 | 106.35273 | 9090 ft | 284 kts | 206° |
| 2026-05-07 13:23 | -5.98696 | 106.34359 | 8786 ft | 277 kts | 206° |
| 2026-05-07 13:23 | -6.00349 | 106.33471 | 8679 ft | 261 kts | 206° |
| 2026-05-07 13:24 | -6.01903 | 106.32637 | 8602 ft | 246 kts | 206° |
| 2026-05-07 13:24 | -6.03375 | 106.31847 | 8493 ft | 233 kts | 205° |
| 2026-05-07 13:24 | -6.04872 | 106.31457 | 8341 ft | 217 kts | 174° |
| 2026-05-07 13:24 | -6.06339 | 106.31670 | 8079 ft | 211 kts | 167° |
| 2026-05-07 13:25 | -6.07778 | 106.31927 | 7700 ft | 209 kts | 167° |
| 2026-05-07 13:25 | -6.09213 | 106.32185 | 7286 ft | 210 kts | 167° |
| 2026-05-07 13:25 | -6.10643 | 106.32441 | 6907 ft | 208 kts | 167° |
| 2026-05-07 13:25 | -6.12068 | 106.32695 | 6516 ft | 208 kts | 167° |
| 2026-05-07 13:26 | -6.13486 | 106.32946 | 6160 ft | 205 kts | 167° |
| 2026-05-07 13:26 | -6.14892 | 106.33195 | 5775 ft | 204 kts | 167° |
| 2026-05-07 13:26 | -6.16232 | 106.33431 | 5562 ft | 193 kts | 167° |
| 2026-05-07 13:26 | -6.17523 | 106.33658 | 5389 ft | 186 kts | 167° |
| 2026-05-07 13:27 | -6.18782 | 106.33880 | 5211 ft | 182 kts | 167° |
| 2026-05-07 13:27 | -6.20011 | 106.34120 | 5083 ft | 179 kts | 159° |
| 2026-05-07 13:27 | -6.20933 | 106.34875 | 4918 ft | 172 kts | 120° |
| 2026-05-07 13:27 | -6.21572 | 106.35918 | 4812 ft | 179 kts | 121° |
| 2026-05-07 13:28 | -6.22227 | 106.36962 | 4664 ft | 173 kts | 121° |
| 2026-05-07 13:28 | -6.22860 | 106.37973 | 4497 ft | 168 kts | 121° |
| 2026-05-07 13:28 | -6.23476 | 106.38963 | 4362 ft | 167 kts | 118° |
| 2026-05-07 13:28 | -6.23706 | 106.40078 | 4197 ft | 167 kts | 76° |
| 2026-05-07 13:29 | -6.23394 | 106.41211 | 4152 ft | 173 kts | 75° |
| 2026-05-07 13:29 | -6.23021 | 106.42362 | 4039 ft | 171 kts | 70° |
| 2026-05-07 13:29 | -6.22596 | 106.43457 | 4007 ft | 167 kts | 69° |
| 2026-05-07 13:29 | -6.22162 | 106.44545 | 4014 ft | 168 kts | 69° |
| 2026-05-07 13:30 | -6.21723 | 106.45643 | 3933 ft | 172 kts | 69° |
| 2026-05-07 13:30 | -6.21274 | 106.46767 | 3723 ft | 172 kts | 69° |
| 2026-05-07 13:30 | -6.20833 | 106.47873 | 3528 ft | 167 kts | 69° |
| 2026-05-07 13:30 | -6.20404 | 106.48949 | 3298 ft | 163 kts | 69° |
| 2026-05-07 13:31 | -6.19995 | 106.49973 | 3073 ft | 154 kts | 70° |
| 2026-05-07 13:31 | -6.19607 | 106.50946 | 2856 ft | 147 kts | 70° |
| 2026-05-07 13:31 | -6.19232 | 106.51886 | 2667 ft | 145 kts | 70° |
| 2026-05-07 13:31 | -6.18853 | 106.52836 | 2487 ft | 147 kts | 70° |
| 2026-05-07 13:32 | -6.18473 | 106.53790 | 2289 ft | 146 kts | 69° |
| 2026-05-07 13:32 | -6.18096 | 106.54735 | 2089 ft | 146 kts | 70° |
| 2026-05-07 13:32 | -6.17716 | 106.55689 | 1896 ft | 148 kts | 69° |
| 2026-05-07 13:32 | -6.17332 | 106.56652 | 1703 ft | 149 kts | 69° |
| 2026-05-07 13:33 | -6.16948 | 106.57614 | 1493 ft | 148 kts | 69° |
| 2026-05-07 13:33 | -6.16566 | 106.58571 | 1313 ft | 148 kts | 70° |
| 2026-05-07 13:33 | -6.16182 | 106.59536 | 1101 ft | 149 kts | 69° |
| 2026-05-07 13:33 | -6.15801 | 106.60493 | 928 ft | 147 kts | 71° |
| 2026-05-07 13:34 | -6.15418 | 106.61454 | 724 ft | 149 kts | 70° |
| 2026-05-07 13:34 | -6.14664 | 106.63345 | 330 ft | 147 kts | 70° |
| 2026-05-07 13:34 | -6.14288 | 106.64287 | 125 ft | 143 kts | 70° |
| 2026-05-07 13:35 | -6.13901 | 106.65212 | 40 ft | 143 kts | 69° |
| 2026-05-07 13:35 | -6.13545 | 106.66129 | 28 ft | 134 kts | 71° |
| 2026-05-07 13:35 | -6.13369 | 106.66545 | 28 ft | 34 kts | 57° |
| 2026-05-07 13:35 | -6.13247 | 106.66668 | 28 ft | 15 kts | 37° |
| 2026-05-07 13:36 | -6.13194 | 106.66698 | 26 ft | 9 kts | 13° |
| 2026-05-07 13:36 | -6.13157 | 106.66693 | 24 ft | 0 kts | 342° |
| 2026-05-07 13:36 | -6.13156 | 106.66693 | 24 ft | 0 kts | 342° |
| 2026-05-07 13:36 | -6.13155 | 106.66693 | 24 ft | 0 kts | 342° |
| 2026-05-07 13:37 | -6.13154 | 106.66692 | 24 ft | 0 kts | 342° |
| 2026-05-07 13:37 | -6.13152 | 106.66692 | 17 ft | 0 kts | 342° |
| 2026-05-07 13:37 | -6.13150 | 106.66691 | 15 ft | 0 kts | 342° |
| 2026-05-07 13:37 | -6.13147 | 106.66690 | 12 ft | 2 kts | 343° |
| 2026-05-07 13:38 | -6.13120 | 106.66707 | 29 ft | 6 kts | 54° |
| 2026-05-07 13:38 | -6.13091 | 106.66776 | 28 ft | 12 kts | 68° |
| 2026-05-07 13:38 | -6.13059 | 106.66855 | 25 ft | 12 kts | 68° |
| 2026-05-07 13:38 | -6.13028 | 106.66932 | 24 ft | 12 kts | 68° |
| 2026-05-07 13:39 | -6.12998 | 106.67008 | 26 ft | 11 kts | 68° |
| 2026-05-07 13:39 | -6.12969 | 106.67081 | 23 ft | 11 kts | 68° |
| 2026-05-07 13:39 | -6.12940 | 106.67153 | 23 ft | 11 kts | 68° |
| 2026-05-07 13:39 | -6.12913 | 106.67222 | 22 ft | 11 kts | 69° |
| 2026-05-07 13:40 | -6.12887 | 106.67290 | 23 ft | 10 kts | 69° |
| 2026-05-07 13:40 | -6.12861 | 106.67355 | 24 ft | 10 kts | 69° |
| 2026-05-07 13:40 | -6.12837 | 106.67419 | 22 ft | 10 kts | 69° |
| 2026-05-07 13:40 | -6.12806 | 106.67477 | 22 ft | 10 kts | 59° |
| 2026-05-07 13:41 | -6.12761 | 106.67551 | 22 ft | 14 kts | 59° |
| 2026-05-07 13:41 | -6.12714 | 106.67631 | 22 ft | 13 kts | 59° |
| 2026-05-07 13:41 | -6.12668 | 106.67708 | 23 ft | 13 kts | 57° |
| 2026-05-07 13:41 | -6.12612 | 106.67775 | 22 ft | 12 kts | 41° |
| 2026-05-07 13:42 | -6.12535 | 106.67826 | 22 ft | 18 kts | 26° |
| 2026-05-07 13:42 | -6.12396 | 106.67854 | 23 ft | 21 kts | 359° |
| 2026-05-07 13:42 | -6.12254 | 106.67821 | 24 ft | 21 kts | 339° |
| 2026-05-07 13:42 | -6.12120 | 106.67769 | 22 ft | 20 kts | 339° |
| 2026-05-07 13:43 | -6.11992 | 106.67717 | 22 ft | 20 kts | 338° |
| 2026-05-07 13:43 | -6.11866 | 106.67668 | 22 ft | 19 kts | 339° |
| 2026-05-07 13:43 | -6.11745 | 106.67619 | 23 ft | 18 kts | 338° |
| 2026-05-07 13:43 | -6.11629 | 106.67572 | 22 ft | 18 kts | 338° |
| 2026-05-07 13:44 | -6.11516 | 106.67528 | 23 ft | 17 kts | 339° |
| 2026-05-07 13:44 | -6.11406 | 106.67488 | 22 ft | 16 kts | 338° |
| 2026-05-07 13:44 | -6.11303 | 106.67446 | 22 ft | 16 kts | 337° |
| 2026-05-07 13:44 | -6.11203 | 106.67404 | 22 ft | 15 kts | 337° |
| 2026-05-07 13:45 | -6.11127 | 106.67372 | 22 ft | 8 kts | 335° |
| 2026-05-07 13:45 | -6.11088 | 106.67331 | 22 ft | 10 kts | 298° |
| 2026-05-07 13:45 | -6.11084 | 106.67242 | 23 ft | 16 kts | 256° |
| 2026-05-07 13:45 | -6.11111 | 106.67132 | 23 ft | 16 kts | 257° |
| 2026-05-07 13:46 | -6.11136 | 106.67025 | 22 ft | 15 kts | 256° |
| 2026-05-07 13:46 | -6.11171 | 106.66925 | 24 ft | 15 kts | 247° |
| 2026-05-07 13:46 | -6.11209 | 106.66832 | 22 ft | 14 kts | 248° |
| 2026-05-07 13:46 | -6.11244 | 106.66742 | 24 ft | 14 kts | 248° |
| 2026-05-07 13:47 | -6.11278 | 106.66656 | 23 ft | 13 kts | 248° |
| 2026-05-07 13:47 | -6.11312 | 106.66572 | 25 ft | 13 kts | 248° |
| 2026-05-07 13:47 | -6.11344 | 106.66491 | 26 ft | 12 kts | 248° |
| 2026-05-07 13:47 | -6.11376 | 106.66413 | 25 ft | 12 kts | 248° |
| 2026-05-07 13:48 | -6.11409 | 106.66343 | 26 ft | 9 kts | 226° |
| 2026-05-07 13:48 | -6.11469 | 106.66335 | 28 ft | 9 kts | 163° |
| 2026-05-07 13:48 | -6.11526 | 106.66360 | 24 ft | 9 kts | 156° |
| 2026-05-07 13:48 | -6.11582 | 106.66384 | 24 ft | 9 kts | 158° |
| 2026-05-07 13:49 | -6.11633 | 106.66412 | 26 ft | 8 kts | 133° |
| 2026-05-07 13:49 | -6.11641 | 106.66467 | 24 ft | 8 kts | 75° |
| 2026-05-07 13:49 | -6.11622 | 106.66521 | 26 ft | 8 kts | 69° |
| 2026-05-07 13:49 | -6.11617 | 106.66572 | 24 ft | 8 kts | 130° |
| 2026-05-07 13:50 | -6.11670 | 106.66592 | 24 ft | 8 kts | 159° |
| 2026-05-07 13:50 | -6.11704 | 106.66606 | 24 ft | 0 kts | 157° |
| 2026-05-07 13:50 | -6.11707 | 106.66607 | 24 ft | 0 kts | 157° |